sensor_id;sensor_type;location;lat;lon;timestamp;temperature;humidity
81321;DHT22;70785;52.570;5.638;2023-10-19T00:03:00;8.60;76.90
81321;DHT22;70785;52.570;5.638;2023-10-19T00:05:29;8.70;77.00
81321;DHT22;70785;52.570;5.638;2023-10-19T00:07:59;8.70;77.10
81321;DHT22;70785;52.570;5.638;2023-10-19T00:10:27;8.70;77.10
81321;DHT22;70785;52.570;5.638;2023-10-19T00:13:04;8.70;77.10
81321;DHT22;70785;52.570;5.638;2023-10-19T00:15:32;8.70;77.00
81321;DHT22;70785;52.570;5.638;2023-10-19T00:18:00;8.80;77.10
81321;DHT22;70785;52.570;5.638;2023-10-19T00:20:34;8.80;77.30
81321;DHT22;70785;52.570;5.638;2023-10-19T00:23:21;8.80;77.40
81321;DHT22;70785;52.570;5.638;2023-10-19T00:26:05;8.80;77.50
81321;DHT22;70785;52.570;5.638;2023-10-19T00:28:36;8.80;77.50
81321;DHT22;70785;52.570;5.638;2023-10-19T00:31:04;8.80;77.50
81321;DHT22;70785;52.570;5.638;2023-10-19T00:33:34;8.80;77.50
81321;DHT22;70785;52.570;5.638;2023-10-19T00:36:08;8.80;77.60
81321;DHT22;70785;52.570;5.638;2023-10-19T00:38:41;8.80;77.70
81321;DHT22;70785;52.570;5.638;2023-10-19T00:41:22;8.80;77.80
81321;DHT22;70785;52.570;5.638;2023-10-19T00:43:58;8.80;77.80
81321;DHT22;70785;52.570;5.638;2023-10-19T00:46:37;8.80;77.70
81321;DHT22;70785;52.570;5.638;2023-10-19T00:49:10;8.90;77.70
81321;DHT22;70785;52.570;5.638;2023-10-19T00:51:45;8.80;77.80
81321;DHT22;70785;52.570;5.638;2023-10-19T00:54:23;8.80;77.80
81321;DHT22;70785;52.570;5.638;2023-10-19T00:57:02;8.80;78.00
81321;DHT22;70785;52.570;5.638;2023-10-19T00:59:41;8.80;78.00
81321;DHT22;70785;52.570;5.638;2023-10-19T01:02:21;8.80;78.10
81321;DHT22;70785;52.570;5.638;2023-10-19T01:04:52;8.80;78.20
81321;DHT22;70785;52.570;5.638;2023-10-19T01:07:28;8.80;78.40
81321;DHT22;70785;52.570;5.638;2023-10-19T01:09:56;8.80;78.30
81321;DHT22;70785;52.570;5.638;2023-10-19T01:12:26;8.80;78.40
81321;DHT22;70785;52.570;5.638;2023-10-19T01:17:34;8.90;78.40
81321;DHT22;70785;52.570;5.638;2023-10-19T01:20:09;8.90;78.30
81321;DHT22;70785;52.570;5.638;2023-10-19T01:25:31;8.90;78.30
81321;DHT22;70785;52.570;5.638;2023-10-19T01:28:07;9.00;78.30
81321;DHT22;70785;52.570;5.638;2023-10-19T01:30:36;9.00;78.30
81321;DHT22;70785;52.570;5.638;2023-10-19T01:33:03;9.00;78.50
81321;DHT22;70785;52.570;5.638;2023-10-19T01:35:30;9.00;78.50
81321;DHT22;70785;52.570;5.638;2023-10-19T01:38:16;9.00;78.50
81321;DHT22;70785;52.570;5.638;2023-10-19T01:40:42;9.00;78.50
81321;DHT22;70785;52.570;5.638;2023-10-19T01:43:12;9.10;78.50
81321;DHT22;70785;52.570;5.638;2023-10-19T01:45:47;9.20;78.50
81321;DHT22;70785;52.570;5.638;2023-10-19T01:48:14;9.20;78.50
81321;DHT22;70785;52.570;5.638;2023-10-19T01:50:42;9.20;78.50
81321;DHT22;70785;52.570;5.638;2023-10-19T01:53:08;9.20;78.50
81321;DHT22;70785;52.570;5.638;2023-10-19T01:55:44;9.20;78.50
81321;DHT22;70785;52.570;5.638;2023-10-19T01:58:13;9.30;78.40
81321;DHT22;70785;52.570;5.638;2023-10-19T02:00:40;9.30;78.40
81321;DHT22;70785;52.570;5.638;2023-10-19T02:03:09;9.30;78.50
81321;DHT22;70785;52.570;5.638;2023-10-19T02:05:35;9.30;78.50
81321;DHT22;70785;52.570;5.638;2023-10-19T02:08:08;9.40;78.50
81321;DHT22;70785;52.570;5.638;2023-10-19T02:10:35;9.40;78.50
81321;DHT22;70785;52.570;5.638;2023-10-19T02:13:03;9.40;78.50
81321;DHT22;70785;52.570;5.638;2023-10-19T02:15:34;9.40;78.50
81321;DHT22;70785;52.570;5.638;2023-10-19T02:18:02;9.40;78.50
81321;DHT22;70785;52.570;5.638;2023-10-19T02:20:30;9.40;78.50
81321;DHT22;70785;52.570;5.638;2023-10-19T02:22:57;9.40;78.60
81321;DHT22;70785;52.570;5.638;2023-10-19T02:25:24;9.50;78.60
81321;DHT22;70785;52.570;5.638;2023-10-19T02:27:54;9.40;78.60
81321;DHT22;70785;52.570;5.638;2023-10-19T02:30:20;9.50;78.60
81321;DHT22;70785;52.570;5.638;2023-10-19T02:32:46;9.50;78.60
81321;DHT22;70785;52.570;5.638;2023-10-19T02:35:14;9.50;78.60
81321;DHT22;70785;52.570;5.638;2023-10-19T02:37:40;9.60;78.60
81321;DHT22;70785;52.570;5.638;2023-10-19T02:40:07;9.60;78.60
81321;DHT22;70785;52.570;5.638;2023-10-19T02:42:48;9.60;78.60
81321;DHT22;70785;52.570;5.638;2023-10-19T02:45:17;9.60;78.60
81321;DHT22;70785;52.570;5.638;2023-10-19T02:47:45;9.70;78.60
81321;DHT22;70785;52.570;5.638;2023-10-19T02:50:12;9.70;78.70
81321;DHT22;70785;52.570;5.638;2023-10-19T02:52:49;9.70;78.60
81321;DHT22;70785;52.570;5.638;2023-10-19T02:55:15;9.80;78.60
81321;DHT22;70785;52.570;5.638;2023-10-19T02:57:45;9.80;78.60
81321;DHT22;70785;52.570;5.638;2023-10-19T03:00:13;9.80;78.60
81321;DHT22;70785;52.570;5.638;2023-10-19T03:02:40;9.90;78.70
81321;DHT22;70785;52.570;5.638;2023-10-19T03:05:07;9.90;78.60
81321;DHT22;70785;52.570;5.638;2023-10-19T03:07:43;10.00;78.70
81321;DHT22;70785;52.570;5.638;2023-10-19T03:10:10;10.00;78.70
81321;DHT22;70785;52.570;5.638;2023-10-19T03:12:50;10.00;78.70
81321;DHT22;70785;52.570;5.638;2023-10-19T03:15:17;10.00;78.70
81321;DHT22;70785;52.570;5.638;2023-10-19T03:17:47;10.10;78.70
81321;DHT22;70785;52.570;5.638;2023-10-19T03:20:13;10.10;78.70
81321;DHT22;70785;52.570;5.638;2023-10-19T03:22:42;10.10;78.70
81321;DHT22;70785;52.570;5.638;2023-10-19T03:25:09;10.10;78.70
81321;DHT22;70785;52.570;5.638;2023-10-19T03:27:54;10.20;78.70
81321;DHT22;70785;52.570;5.638;2023-10-19T03:30:21;10.20;78.70
81321;DHT22;70785;52.570;5.638;2023-10-19T03:32:52;10.30;78.80
81321;DHT22;70785;52.570;5.638;2023-10-19T03:35:18;10.30;78.80
81321;DHT22;70785;52.570;5.638;2023-10-19T03:37:47;10.40;78.80
81321;DHT22;70785;52.570;5.638;2023-10-19T03:40:15;10.40;78.80
81321;DHT22;70785;52.570;5.638;2023-10-19T03:42:52;10.50;78.80
81321;DHT22;70785;52.570;5.638;2023-10-19T03:45:20;10.50;78.70
81321;DHT22;70785;52.570;5.638;2023-10-19T03:47:51;10.50;78.50
81321;DHT22;70785;52.570;5.638;2023-10-19T03:50:19;10.50;78.60
81321;DHT22;70785;52.570;5.638;2023-10-19T03:52:48;10.60;78.60
81321;DHT22;70785;52.570;5.638;2023-10-19T03:55:14;10.60;78.70
81321;DHT22;70785;52.570;5.638;2023-10-19T03:57:49;10.70;78.70
81321;DHT22;70785;52.570;5.638;2023-10-19T04:00:20;10.70;78.70
81321;DHT22;70785;52.570;5.638;2023-10-19T04:02:51;10.70;78.80
81321;DHT22;70785;52.570;5.638;2023-10-19T04:05:22;10.70;78.80
81321;DHT22;70785;52.570;5.638;2023-10-19T04:07:49;10.80;78.80
81321;DHT22;70785;52.570;5.638;2023-10-19T04:10:23;10.80;78.90
81321;DHT22;70785;52.570;5.638;2023-10-19T04:12:55;10.80;78.90
81321;DHT22;70785;52.570;5.638;2023-10-19T04:15:21;10.80;78.90
81321;DHT22;70785;52.570;5.638;2023-10-19T04:17:48;10.90;78.90
81321;DHT22;70785;52.570;5.638;2023-10-19T04:20:16;10.90;79.00
81321;DHT22;70785;52.570;5.638;2023-10-19T04:22:43;10.90;79.00
81321;DHT22;70785;52.570;5.638;2023-10-19T04:25:10;10.90;79.00
81321;DHT22;70785;52.570;5.638;2023-10-19T04:27:39;10.90;79.00
81321;DHT22;70785;52.570;5.638;2023-10-19T04:30:11;11.00;79.00
81321;DHT22;70785;52.570;5.638;2023-10-19T04:32:48;11.00;79.00
81321;DHT22;70785;52.570;5.638;2023-10-19T04:35:15;11.10;79.00
81321;DHT22;70785;52.570;5.638;2023-10-19T04:37:51;11.10;79.00
81321;DHT22;70785;52.570;5.638;2023-10-19T04:40:22;11.10;79.00
81321;DHT22;70785;52.570;5.638;2023-10-19T04:42:51;11.10;79.00
81321;DHT22;70785;52.570;5.638;2023-10-19T04:45:18;11.20;79.00
81321;DHT22;70785;52.570;5.638;2023-10-19T04:47:44;11.20;79.10
81321;DHT22;70785;52.570;5.638;2023-10-19T04:50:10;11.20;79.10
81321;DHT22;70785;52.570;5.638;2023-10-19T04:52:37;11.30;79.10
81321;DHT22;70785;52.570;5.638;2023-10-19T04:55:04;11.30;79.20
81321;DHT22;70785;52.570;5.638;2023-10-19T04:57:31;11.30;79.20
81321;DHT22;70785;52.570;5.638;2023-10-19T04:59:57;11.30;79.30
81321;DHT22;70785;52.570;5.638;2023-10-19T05:02:24;11.40;79.30
81321;DHT22;70785;52.570;5.638;2023-10-19T05:04:50;11.40;79.20
81321;DHT22;70785;52.570;5.638;2023-10-19T05:07:16;11.40;79.30
81321;DHT22;70785;52.570;5.638;2023-10-19T05:09:46;11.50;79.30
81321;DHT22;70785;52.570;5.638;2023-10-19T05:12:14;11.40;79.30
81321;DHT22;70785;52.570;5.638;2023-10-19T05:14:41;11.50;79.20
81321;DHT22;70785;52.570;5.638;2023-10-19T05:17:09;11.40;79.30
81321;DHT22;70785;52.570;5.638;2023-10-19T05:19:36;11.40;79.30
81321;DHT22;70785;52.570;5.638;2023-10-19T05:22:05;11.40;79.40
81321;DHT22;70785;52.570;5.638;2023-10-19T05:24:32;11.30;79.40
81321;DHT22;70785;52.570;5.638;2023-10-19T05:26:58;11.30;79.50
81321;DHT22;70785;52.570;5.638;2023-10-19T05:29:24;11.30;79.60
81321;DHT22;70785;52.570;5.638;2023-10-19T05:31:51;11.20;79.60
81321;DHT22;70785;52.570;5.638;2023-10-19T05:34:22;11.20;79.60
81321;DHT22;70785;52.570;5.638;2023-10-19T05:36:49;11.20;79.60
81321;DHT22;70785;52.570;5.638;2023-10-19T05:39:16;11.10;79.60
81321;DHT22;70785;52.570;5.638;2023-10-19T05:41:42;11.10;79.70
81321;DHT22;70785;52.570;5.638;2023-10-19T05:44:08;11.10;79.70
81321;DHT22;70785;52.570;5.638;2023-10-19T05:46:34;11.10;79.70
81321;DHT22;70785;52.570;5.638;2023-10-19T05:49:01;11.20;79.80
81321;DHT22;70785;52.570;5.638;2023-10-19T05:51:30;11.20;79.80
81321;DHT22;70785;52.570;5.638;2023-10-19T05:53:56;11.30;79.80
81321;DHT22;70785;52.570;5.638;2023-10-19T05:56:28;11.30;79.70
81321;DHT22;70785;52.570;5.638;2023-10-19T05:58:54;11.40;79.80
81321;DHT22;70785;52.570;5.638;2023-10-19T06:01:21;11.50;79.80
81321;DHT22;70785;52.570;5.638;2023-10-19T06:03:48;11.50;79.70
81321;DHT22;70785;52.570;5.638;2023-10-19T06:06:14;11.50;79.80
81321;DHT22;70785;52.570;5.638;2023-10-19T06:08:40;11.60;79.80
81321;DHT22;70785;52.570;5.638;2023-10-19T06:11:06;11.70;79.90
81321;DHT22;70785;52.570;5.638;2023-10-19T06:13:33;11.80;79.80
81321;DHT22;70785;52.570;5.638;2023-10-19T06:15:59;11.90;79.90
81321;DHT22;70785;52.570;5.638;2023-10-19T06:18:25;11.90;79.80
81321;DHT22;70785;52.570;5.638;2023-10-19T06:20:51;12.00;79.90
81321;DHT22;70785;52.570;5.638;2023-10-19T06:23:21;12.00;80.00
81321;DHT22;70785;52.570;5.638;2023-10-19T06:25:47;12.10;80.00
81321;DHT22;70785;52.570;5.638;2023-10-19T06:28:13;12.20;80.00
81321;DHT22;70785;52.570;5.638;2023-10-19T06:30:39;12.20;80.00
81321;DHT22;70785;52.570;5.638;2023-10-19T06:33:06;12.30;80.00
81321;DHT22;70785;52.570;5.638;2023-10-19T06:35:33;12.40;79.90
81321;DHT22;70785;52.570;5.638;2023-10-19T06:38:00;12.50;79.90
81321;DHT22;70785;52.570;5.638;2023-10-19T06:40:27;12.50;79.80
81321;DHT22;70785;52.570;5.638;2023-10-19T06:42:57;12.50;79.80
81321;DHT22;70785;52.570;5.638;2023-10-19T06:45:25;12.50;79.90
81321;DHT22;70785;52.570;5.638;2023-10-19T06:47:52;12.50;79.90
81321;DHT22;70785;52.570;5.638;2023-10-19T06:50:20;12.50;79.70
81321;DHT22;70785;52.570;5.638;2023-10-19T06:52:47;12.50;79.70
81321;DHT22;70785;52.570;5.638;2023-10-19T06:55:17;12.60;79.70
81321;DHT22;70785;52.570;5.638;2023-10-19T06:57:48;12.70;79.80
81321;DHT22;70785;52.570;5.638;2023-10-19T07:00:15;12.70;79.80
81321;DHT22;70785;52.570;5.638;2023-10-19T07:02:46;12.70;79.80
81321;DHT22;70785;52.570;5.638;2023-10-19T07:05:13;12.80;79.70
81321;DHT22;70785;52.570;5.638;2023-10-19T07:07:45;12.80;79.70
81321;DHT22;70785;52.570;5.638;2023-10-19T07:10:14;12.90;79.70
81321;DHT22;70785;52.570;5.638;2023-10-19T07:12:42;12.90;79.60
81321;DHT22;70785;52.570;5.638;2023-10-19T07:15:10;12.90;79.60
81321;DHT22;70785;52.570;5.638;2023-10-19T07:17:46;13.00;79.70
81321;DHT22;70785;52.570;5.638;2023-10-19T07:20:14;13.00;79.50
81321;DHT22;70785;52.570;5.638;2023-10-19T07:22:56;13.00;79.50
81321;DHT22;70785;52.570;5.638;2023-10-19T07:25:23;13.10;79.50
81321;DHT22;70785;52.570;5.638;2023-10-19T07:27:52;13.10;79.40
81321;DHT22;70785;52.570;5.638;2023-10-19T07:30:20;13.10;79.50
81321;DHT22;70785;52.570;5.638;2023-10-19T07:32:52;13.20;79.40
81321;DHT22;70785;52.570;5.638;2023-10-19T07:35:28;13.20;79.40
81321;DHT22;70785;52.570;5.638;2023-10-19T07:37:56;13.30;79.40
81321;DHT22;70785;52.570;5.638;2023-10-19T07:40:22;13.30;79.30
81321;DHT22;70785;52.570;5.638;2023-10-19T07:42:50;13.30;79.30
81321;DHT22;70785;52.570;5.638;2023-10-19T07:45:18;13.30;79.30
81321;DHT22;70785;52.570;5.638;2023-10-19T07:47:44;13.40;79.30
81321;DHT22;70785;52.570;5.638;2023-10-19T07:50:11;13.40;79.20
81321;DHT22;70785;52.570;5.638;2023-10-19T07:52:50;13.50;79.20
81321;DHT22;70785;52.570;5.638;2023-10-19T07:55:17;13.50;79.10
81321;DHT22;70785;52.570;5.638;2023-10-19T07:57:43;13.50;79.00
81321;DHT22;70785;52.570;5.638;2023-10-19T08:00:11;13.50;79.00
81321;DHT22;70785;52.570;5.638;2023-10-19T08:02:40;13.60;79.00
81321;DHT22;70785;52.570;5.638;2023-10-19T08:05:13;13.60;78.90
81321;DHT22;70785;52.570;5.638;2023-10-19T08:07:40;13.60;78.90
81321;DHT22;70785;52.570;5.638;2023-10-19T08:10:12;13.70;78.90
81321;DHT22;70785;52.570;5.638;2023-10-19T08:12:39;13.70;78.90
81321;DHT22;70785;52.570;5.638;2023-10-19T08:15:08;13.80;78.80
81321;DHT22;70785;52.570;5.638;2023-10-19T08:17:41;13.80;78.80
81321;DHT22;70785;52.570;5.638;2023-10-19T08:20:09;13.90;78.70
81321;DHT22;70785;52.570;5.638;2023-10-19T08:22:38;13.90;78.70
81321;DHT22;70785;52.570;5.638;2023-10-19T08:25:05;13.90;78.70
81321;DHT22;70785;52.570;5.638;2023-10-19T08:27:41;13.90;78.70
81321;DHT22;70785;52.570;5.638;2023-10-19T08:30:13;14.00;78.60
81321;DHT22;70785;52.570;5.638;2023-10-19T08:32:40;14.00;78.60
81321;DHT22;70785;52.570;5.638;2023-10-19T08:35:08;14.10;78.50
81321;DHT22;70785;52.570;5.638;2023-10-19T08:37:40;14.10;78.50
81321;DHT22;70785;52.570;5.638;2023-10-19T08:40:07;14.10;78.50
81321;DHT22;70785;52.570;5.638;2023-10-19T08:42:40;14.10;78.40
81321;DHT22;70785;52.570;5.638;2023-10-19T08:45:07;14.20;78.40
81321;DHT22;70785;52.570;5.638;2023-10-19T08:47:37;14.20;78.40
81321;DHT22;70785;52.570;5.638;2023-10-19T08:50:07;14.20;78.30
81321;DHT22;70785;52.570;5.638;2023-10-19T08:52:36;14.20;78.30
81321;DHT22;70785;52.570;5.638;2023-10-19T08:55:03;14.20;78.30
81321;DHT22;70785;52.570;5.638;2023-10-19T08:57:30;14.20;78.30
81321;DHT22;70785;52.570;5.638;2023-10-19T08:59:56;14.20;78.30
81321;DHT22;70785;52.570;5.638;2023-10-19T09:02:24;14.20;78.30
81321;DHT22;70785;52.570;5.638;2023-10-19T09:04:50;14.30;78.30
81321;DHT22;70785;52.570;5.638;2023-10-19T09:07:17;14.30;78.30
81321;DHT22;70785;52.570;5.638;2023-10-19T09:09:45;14.30;78.30
81321;DHT22;70785;52.570;5.638;2023-10-19T09:12:13;14.30;78.40
81321;DHT22;70785;52.570;5.638;2023-10-19T09:14:39;14.30;78.40
81321;DHT22;70785;52.570;5.638;2023-10-19T09:17:09;14.40;78.30
81321;DHT22;70785;52.570;5.638;2023-10-19T09:19:41;14.40;78.30
81321;DHT22;70785;52.570;5.638;2023-10-19T09:22:09;14.40;78.20
81321;DHT22;70785;52.570;5.638;2023-10-19T09:24:54;14.50;78.20
81321;DHT22;70785;52.570;5.638;2023-10-19T09:27:21;14.60;78.10
81321;DHT22;70785;52.570;5.638;2023-10-19T09:29:49;14.70;78.10
81321;DHT22;70785;52.570;5.638;2023-10-19T09:32:17;14.70;78.00
81321;DHT22;70785;52.570;5.638;2023-10-19T09:34:45;14.80;77.80
81321;DHT22;70785;52.570;5.638;2023-10-19T09:37:16;14.90;77.80
81321;DHT22;70785;52.570;5.638;2023-10-19T09:39:42;14.90;77.80
81321;DHT22;70785;52.570;5.638;2023-10-19T09:42:10;15.00;77.80
81321;DHT22;70785;52.570;5.638;2023-10-19T09:44:42;15.00;77.70
81321;DHT22;70785;52.570;5.638;2023-10-19T09:47:11;15.20;77.60
81321;DHT22;70785;52.570;5.638;2023-10-19T09:49:40;15.20;77.50
81321;DHT22;70785;52.570;5.638;2023-10-19T09:52:07;15.40;77.40
81321;DHT22;70785;52.570;5.638;2023-10-19T09:54:47;15.50;77.30
81321;DHT22;70785;52.570;5.638;2023-10-19T09:57:21;15.60;77.20
81321;DHT22;70785;52.570;5.638;2023-10-19T10:00:02;15.70;77.10
81321;DHT22;70785;52.570;5.638;2023-10-19T10:02:43;15.80;77.00
81321;DHT22;70785;52.570;5.638;2023-10-19T10:10:45;16.10;76.70
81321;DHT22;70785;52.570;5.638;2023-10-19T10:15:57;16.20;76.50
81321;DHT22;70785;52.570;5.638;2023-10-19T10:18:24;16.30;76.30
81321;DHT22;70785;52.570;5.638;2023-10-19T10:23:46;16.40;76.00
81321;DHT22;70785;52.570;5.638;2023-10-19T10:26:17;16.50;75.90
81321;DHT22;70785;52.570;5.638;2023-10-19T10:28:48;16.50;75.90
81321;DHT22;70785;52.570;5.638;2023-10-19T10:31:19;16.60;75.70
81321;DHT22;70785;52.570;5.638;2023-10-19T10:33:53;16.60;75.50
81321;DHT22;70785;52.570;5.638;2023-10-19T10:36:22;16.60;75.40
81321;DHT22;70785;52.570;5.638;2023-10-19T10:38:50;16.60;75.30
81321;DHT22;70785;52.570;5.638;2023-10-19T10:41:24;16.70;75.20
81321;DHT22;70785;52.570;5.638;2023-10-19T10:43:58;16.80;75.00
81321;DHT22;70785;52.570;5.638;2023-10-19T10:46:26;16.90;75.00
81321;DHT22;70785;52.570;5.638;2023-10-19T10:48:53;17.00;74.80
81321;DHT22;70785;52.570;5.638;2023-10-19T10:51:23;17.00;74.60
81321;DHT22;70785;52.570;5.638;2023-10-19T10:53:51;17.00;74.50
81321;DHT22;70785;52.570;5.638;2023-10-19T10:56:20;17.00;74.50
81321;DHT22;70785;52.570;5.638;2023-10-19T10:58:46;17.20;74.60
81321;DHT22;70785;52.570;5.638;2023-10-19T11:01:13;17.20;74.50
81321;DHT22;70785;52.570;5.638;2023-10-19T11:03:42;17.40;74.30
81321;DHT22;70785;52.570;5.638;2023-10-19T11:06:09;17.50;74.10
81321;DHT22;70785;52.570;5.638;2023-10-19T11:08:36;17.50;74.00
81321;DHT22;70785;52.570;5.638;2023-10-19T11:11:06;17.50;74.00
81321;DHT22;70785;52.570;5.638;2023-10-19T11:13:33;17.40;74.10
81321;DHT22;70785;52.570;5.638;2023-10-19T11:16:04;17.40;73.90
81321;DHT22;70785;52.570;5.638;2023-10-19T11:18:36;17.40;74.00
81321;DHT22;70785;52.570;5.638;2023-10-19T11:21:06;17.50;74.00
81321;DHT22;70785;52.570;5.638;2023-10-19T11:23:40;17.60;73.90
81321;DHT22;70785;52.570;5.638;2023-10-19T11:26:09;17.60;73.30
81321;DHT22;70785;52.570;5.638;2023-10-19T11:28:36;17.60;73.10
81321;DHT22;70785;52.570;5.638;2023-10-19T11:31:17;17.50;73.10
81321;DHT22;70785;52.570;5.638;2023-10-19T11:33:45;17.40;73.30
81321;DHT22;70785;52.570;5.638;2023-10-19T11:36:12;17.20;73.40
81321;DHT22;70785;52.570;5.638;2023-10-19T11:38:42;17.10;73.60
81321;DHT22;70785;52.570;5.638;2023-10-19T11:41:10;17.00;73.80
81321;DHT22;70785;52.570;5.638;2023-10-19T11:43:37;17.00;73.90
81321;DHT22;70785;52.570;5.638;2023-10-19T11:46:04;17.00;73.80
81321;DHT22;70785;52.570;5.638;2023-10-19T11:48:32;17.00;73.70
81321;DHT22;70785;52.570;5.638;2023-10-19T11:50:58;17.00;73.80
81321;DHT22;70785;52.570;5.638;2023-10-19T11:53:24;17.00;73.90
81321;DHT22;70785;52.570;5.638;2023-10-19T11:55:50;17.00;73.90
81321;DHT22;70785;52.570;5.638;2023-10-19T11:58:17;17.00;74.00
81321;DHT22;70785;52.570;5.638;2023-10-19T12:00:44;17.00;74.20
81321;DHT22;70785;52.570;5.638;2023-10-19T12:03:12;17.00;74.30
81321;DHT22;70785;52.570;5.638;2023-10-19T12:05:39;17.00;74.40
81321;DHT22;70785;52.570;5.638;2023-10-19T12:08:08;17.00;74.30
81321;DHT22;70785;52.570;5.638;2023-10-19T12:10:34;17.00;74.20
81321;DHT22;70785;52.570;5.638;2023-10-19T12:13:04;17.00;74.20
81321;DHT22;70785;52.570;5.638;2023-10-19T12:15:34;17.00;74.30
81321;DHT22;70785;52.570;5.638;2023-10-19T12:18:00;17.20;74.40
81321;DHT22;70785;52.570;5.638;2023-10-19T12:20:29;17.20;74.40
81321;DHT22;70785;52.570;5.638;2023-10-19T12:22:59;17.20;74.00
81321;DHT22;70785;52.570;5.638;2023-10-19T12:25:26;17.30;74.10
81321;DHT22;70785;52.570;5.638;2023-10-19T12:27:57;17.40;73.90
81321;DHT22;70785;52.570;5.638;2023-10-19T12:30:24;17.60;74.10
81321;DHT22;70785;52.570;5.638;2023-10-19T12:32:52;17.80;73.90
81321;DHT22;70785;52.570;5.638;2023-10-19T12:35:19;18.10;73.60
81321;DHT22;70785;52.570;5.638;2023-10-19T12:37:56;18.20;73.20
81321;DHT22;70785;52.570;5.638;2023-10-19T12:40:22;18.10;73.30
81321;DHT22;70785;52.570;5.638;2023-10-19T12:43:04;18.00;73.10
81321;DHT22;70785;52.570;5.638;2023-10-19T12:45:33;17.90;73.20
81321;DHT22;70785;52.570;5.638;2023-10-19T12:48:03;17.80;73.30
81321;DHT22;70785;52.570;5.638;2023-10-19T12:50:30;17.80;73.20
81321;DHT22;70785;52.570;5.638;2023-10-19T12:52:56;17.70;73.40
81321;DHT22;70785;52.570;5.638;2023-10-19T12:55:23;17.70;73.50
81321;DHT22;70785;52.570;5.638;2023-10-19T12:57:53;17.70;73.50
81321;DHT22;70785;52.570;5.638;2023-10-19T13:00:25;17.70;73.60
81321;DHT22;70785;52.570;5.638;2023-10-19T13:03:03;17.80;73.40
81321;DHT22;70785;52.570;5.638;2023-10-19T13:05:35;18.00;73.50
81321;DHT22;70785;52.570;5.638;2023-10-19T13:08:02;18.00;73.30
81321;DHT22;70785;52.570;5.638;2023-10-19T13:10:32;18.00;73.20
81321;DHT22;70785;52.570;5.638;2023-10-19T13:13:00;17.90;73.20
81321;DHT22;70785;52.570;5.638;2023-10-19T13:15:33;17.80;73.20
81321;DHT22;70785;52.570;5.638;2023-10-19T13:18:01;17.80;73.30
81321;DHT22;70785;52.570;5.638;2023-10-19T13:20:28;17.70;73.30
81321;DHT22;70785;52.570;5.638;2023-10-19T13:23:03;17.60;73.20
81321;DHT22;70785;52.570;5.638;2023-10-19T13:25:33;17.50;73.20
81321;DHT22;70785;52.570;5.638;2023-10-19T13:28:13;17.50;73.30
81321;DHT22;70785;52.570;5.638;2023-10-19T13:30:41;17.40;73.40
81321;DHT22;70785;52.570;5.638;2023-10-19T13:33:09;17.40;73.50
81321;DHT22;70785;52.570;5.638;2023-10-19T13:35:37;17.30;73.60
81321;DHT22;70785;52.570;5.638;2023-10-19T13:38:05;17.30;73.80
81321;DHT22;70785;52.570;5.638;2023-10-19T13:40:32;17.30;73.70
81321;DHT22;70785;52.570;5.638;2023-10-19T13:42:58;17.30;73.70
81321;DHT22;70785;52.570;5.638;2023-10-19T13:45:25;17.30;73.60
81321;DHT22;70785;52.570;5.638;2023-10-19T13:47:51;17.20;73.70
81321;DHT22;70785;52.570;5.638;2023-10-19T13:50:24;17.20;73.80
81321;DHT22;70785;52.570;5.638;2023-10-19T13:52:52;17.20;74.00
81321;DHT22;70785;52.570;5.638;2023-10-19T13:55:18;17.10;74.00
81321;DHT22;70785;52.570;5.638;2023-10-19T13:57:47;17.10;74.10
81321;DHT22;70785;52.570;5.638;2023-10-19T14:00:15;17.00;74.00
81321;DHT22;70785;52.570;5.638;2023-10-19T14:02:51;17.00;74.00
81321;DHT22;70785;52.570;5.638;2023-10-19T14:05:18;17.00;74.10
81321;DHT22;70785;52.570;5.638;2023-10-19T14:07:50;16.90;74.10
81321;DHT22;70785;52.570;5.638;2023-10-19T14:10:18;16.90;74.20
81321;DHT22;70785;52.570;5.638;2023-10-19T14:12:46;16.80;74.30
81321;DHT22;70785;52.570;5.638;2023-10-19T14:15:17;16.80;74.50
81321;DHT22;70785;52.570;5.638;2023-10-19T14:17:48;16.70;74.50
81321;DHT22;70785;52.570;5.638;2023-10-19T14:20:15;16.70;74.60
81321;DHT22;70785;52.570;5.638;2023-10-19T14:22:44;16.60;74.50
81321;DHT22;70785;52.570;5.638;2023-10-19T14:25:11;16.60;74.70
81321;DHT22;70785;52.570;5.638;2023-10-19T14:27:40;16.60;74.90
81321;DHT22;70785;52.570;5.638;2023-10-19T14:30:11;16.60;75.00
81321;DHT22;70785;52.570;5.638;2023-10-19T14:32:45;16.60;74.90
81321;DHT22;70785;52.570;5.638;2023-10-19T14:35:16;16.50;75.10
81321;DHT22;70785;52.570;5.638;2023-10-19T14:37:47;16.50;75.30
81321;DHT22;70785;52.570;5.638;2023-10-19T14:40:21;16.50;75.30
81321;DHT22;70785;52.570;5.638;2023-10-19T14:42:49;16.50;75.40
81321;DHT22;70785;52.570;5.638;2023-10-19T14:45:20;16.50;75.40
81321;DHT22;70785;52.570;5.638;2023-10-19T14:47:48;16.40;75.60
81321;DHT22;70785;52.570;5.638;2023-10-19T14:50:15;16.40;75.70
81321;DHT22;70785;52.570;5.638;2023-10-19T14:52:47;16.40;75.60
81321;DHT22;70785;52.570;5.638;2023-10-19T14:55:14;16.40;75.50
81321;DHT22;70785;52.570;5.638;2023-10-19T14:57:43;16.40;75.50
81321;DHT22;70785;52.570;5.638;2023-10-19T15:00:12;16.40;75.70
81321;DHT22;70785;52.570;5.638;2023-10-19T15:02:45;16.40;75.80
81321;DHT22;70785;52.570;5.638;2023-10-19T15:05:12;16.40;75.70
81321;DHT22;70785;52.570;5.638;2023-10-19T15:07:41;16.30;75.80
81321;DHT22;70785;52.570;5.638;2023-10-19T15:10:09;16.30;75.90
81321;DHT22;70785;52.570;5.638;2023-10-19T15:12:37;16.30;76.00
81321;DHT22;70785;52.570;5.638;2023-10-19T15:15:04;16.20;76.00
81321;DHT22;70785;52.570;5.638;2023-10-19T15:17:31;16.20;76.10
81321;DHT22;70785;52.570;5.638;2023-10-19T15:19:57;16.20;76.30
81321;DHT22;70785;52.570;5.638;2023-10-19T15:22:24;16.20;76.30
81321;DHT22;70785;52.570;5.638;2023-10-19T15:24:53;16.20;76.50
81321;DHT22;70785;52.570;5.638;2023-10-19T15:27:19;16.20;76.50
81321;DHT22;70785;52.570;5.638;2023-10-19T15:29:45;16.10;76.60
81321;DHT22;70785;52.570;5.638;2023-10-19T15:32:12;16.10;76.70
81321;DHT22;70785;52.570;5.638;2023-10-19T15:34:41;16.10;76.90
81321;DHT22;70785;52.570;5.638;2023-10-19T15:37:07;16.00;77.00
81321;DHT22;70785;52.570;5.638;2023-10-19T15:39:33;16.00;77.00
81321;DHT22;70785;52.570;5.638;2023-10-19T15:41:59;16.00;77.10
81321;DHT22;70785;52.570;5.638;2023-10-19T15:44:25;16.00;77.30
81321;DHT22;70785;52.570;5.638;2023-10-19T15:46:51;16.00;77.20
81321;DHT22;70785;52.570;5.638;2023-10-19T15:49:18;16.00;77.30
81321;DHT22;70785;52.570;5.638;2023-10-19T15:51:45;16.00;77.50
81321;DHT22;70785;52.570;5.638;2023-10-19T15:54:11;15.90;77.60
81321;DHT22;70785;52.570;5.638;2023-10-19T15:56:37;15.80;77.60
81321;DHT22;70785;52.570;5.638;2023-10-19T15:59:04;15.80;77.80
81321;DHT22;70785;52.570;5.638;2023-10-19T16:01:30;15.80;78.00
81321;DHT22;70785;52.570;5.638;2023-10-19T16:03:57;15.70;78.10